Time;durP1;ratioP1;P1;durP2;ratioP2;P2;SDS_P1;SDS_P2;PMS_P1;PMS_P2;Temp;Humidity;BMP_temperature;BMP_pressure;BME280_temperature;BME280_humidity;BME280_pressure;Samples;Min_cycle;Max_cycle;Signal;HPM_P1;HPM_P2
2022/06/27 00:01:02;;;;;;;;;;;;;;;;;;2081032;28;20282;-45
2022/06/27 00:02:02;;;;;;;;;;;;;;;;;;2081196;28;19936;-46
2022/06/27 00:03:03;;;;;;;;;;;;;;;;;;2081222;28;19951;-46
2022/06/27 00:04:04;;;;;;;;;;;;;;;;;;2080992;28;20375;-45
2022/06/27 00:05:05;;;;;;;;;;;;;;;;;;2081137;28;19921;-46
2022/06/27 00:06:06;;;;;;;;;;;;;;;;;;2081200;28;19921;-45
2022/06/27 00:07:07;;;;;;;;;;;;;;;;;;2081934;28;19971;-45
2022/06/27 00:08:07;;;;;;;;;;;;;;;;;;2082620;28;19921;-46
2022/06/27 00:09:09;;;;;;;;;;;;;;;;;;2082456;28;19921;-45
2022/06/27 00:10:09;;;;;;;;;;;;;;;;;;2082540;28;19975;-45
2022/06/27 00:11:10;;;;;;;;;;;;;;;;;;2082359;28;19976;-44
2022/06/27 00:12:11;;;;;;;;;;;;;;;;;;2082433;28;19928;-44
2022/06/27 00:13:12;;;;;;;;;;;;;;;;;;2082512;28;19921;-43
2022/06/27 00:14:13;;;;;;;;;;;;;;;;;;2082494;28;19921;-43
2022/06/27 00:15:14;;;;;;;;;;;;;;;;;;2082474;28;19925;-43
2022/06/27 00:16:14;;;;;;;;;;;;;;;;;;2082710;28;19932;-44
2022/06/27 00:17:35;;;;;;;;;;;;;;;;;;2082558;28;19925;-44
2022/06/27 00:18:36;;;;;;;;;;;;;;;;;;2082441;28;19924;-44
2022/06/27 00:19:37;;;;;;;;;;;;;;;;;;2082152;28;20374;-44
2022/06/27 00:20:38;;;;;;;;;;;;;;;;;;2082651;28;19921;-44
2022/06/27 00:21:39;;;;;;;;;;;;;;;;;;2082495;28;19925;-44
2022/06/27 00:22:40;;;;;;;;;;;;;;;;;;2082468;28;19921;-44
2022/06/27 00:23:41;;;;;;;;;;;;;;;;;;2082547;28;19921;-44
2022/06/27 00:24:42;;;;;;;;;;;;;;;;;;2082483;28;20055;-44
2022/06/27 00:25:43;;;;;;;;;;;;;;;;;;2082463;28;19964;-44
2022/06/27 00:26:43;;;;;;;;;;;;;;;;;;2082310;28;20432;-43
2022/06/27 00:27:44;;;;;;;;;;;;;;;;;;2082347;28;19921;-45
2022/06/27 00:28:45;;;;;;;;;;;;;;;;;;2082818;28;19921;-45
2022/06/27 00:29:46;;;;;;;;;;;;;;;;;;2082353;28;20350;-45
2022/06/27 00:30:47;;;;;;;;;;;;;;;;;;2082771;28;19932;-45
2022/06/27 00:31:48;;;;;;;;;;;;;;;;;;2082316;28;19964;-45
2022/06/27 00:32:49;;;;;;;;;;;;;;;;;;2082534;28;19933;-46
2022/06/27 00:33:50;;;;;;;;;;;;;;;;;;2082405;28;19921;-46
2022/06/27 00:34:51;;;;;;;;;;;;;;;;;;2082229;28;20012;-45
2022/06/27 00:35:53;;;;;;;;;;;;;;;;;;2082330;28;19948;-46
2022/06/27 00:36:54;;;;;;;;;;;;;;;;;;2082434;28;20011;-46
2022/06/27 00:37:55;;;;;;;;;;;;;;;;;;2082401;28;19964;-46
2022/06/27 00:38:56;;;;;;;;;;;;;;;;;;2082274;28;19921;-45
2022/06/27 00:39:56;;;;;;;;;;;;;;;;;;2082327;28;20378;-45
2022/06/27 00:40:57;;;;;;;;;;;;;;;;;;2082406;28;19954;-44
2022/06/27 00:41:58;;;;;;;;;;;;;;;;;;2082474;28;20000;-45
2022/06/27 00:42:59;;;;;;;;;;;;;;;;;;2082220;28;19925;-45
2022/06/27 00:44:00;;;;;;;;;;;;;;;;;;2082333;28;19964;-46
2022/06/27 00:45:01;;;;;;;;;;;;;;;;;;2082385;28;20020;-45
2022/06/27 00:46:01;;;;;;;;;;;;;;;;;;2082265;28;20272;-45
2022/06/27 00:47:02;;;;;;;;;;;;;;;;;;2082492;28;19921;-44
2022/06/27 00:48:03;;;;;;;;;;;;;;;;;;2083428;28;20004;-44
2022/06/27 00:49:04;;;;;;;;;;;;;;;;;;2090713;28;20294;-46
2022/06/27 00:50:05;;;;;;;;;;;;;;;;;;2090466;28;19921;-45
2022/06/27 00:51:06;;;;;;;;;;;;;;;;;;2090453;28;20334;-46
2022/06/27 00:52:06;;;;;;;;;;;;;;;;;;2090466;28;20366;-46
2022/06/27 00:53:08;;;;;;;;;;;;;;;;;;2090451;28;19921;-45
2022/06/27 00:54:08;;;;;;;;;;;;;;;;;;2090546;28;20015;-46
2022/06/27 00:55:09;;;;;;;;;;;;;;;;;;2090805;28;20019;-46
2022/06/27 00:56:10;;;;;;;;;;;;;;;;;;2090414;28;20324;-45
2022/06/27 00:57:11;;;;;;;;;;;;;;;;;;2090753;28;19928;-45
2022/06/27 00:58:12;;;;;;;;;;;;;;;;;;2090423;28;20035;-45
2022/06/27 00:59:13;;;;;;;;;;;;;;;;;;2090317;28;20027;-45
2022/06/27 01:00:13;;;;;;;;;;;;;;;;;;2090782;28;20083;-45
2022/06/27 01:01:14;;;;;;;;;;;;;;;;;;2090301;28;19924;-46
2022/06/27 01:02:15;;;;;;;;;;;;;;;;;;2090443;28;20016;-46
2022/06/27 01:03:17;;;;;;;;;;;;;;;;;;2090420;28;19920;-46
2022/06/27 01:04:17;;;;;;;;;;;;;;;;;;2090477;28;19956;-45
2022/06/27 01:05:18;;;;;;;;;;;;;;;;;;2090334;28;19921;-45
2022/06/27 01:06:19;;;;;;;;;;;;;;;;;;2090317;28;19925;-47
2022/06/27 01:07:20;;;;;;;;;;;;;;;;;;2090269;28;19927;-45
2022/06/27 01:08:21;;;;;;;;;;;;;;;;;;2090407;28;19963;-45
2022/06/27 01:09:22;;;;;;;;;;;;;;;;;;2090457;28;19927;-45
2022/06/27 01:10:22;;;;;;;;;;;;;;;;;;2090554;28;20038;-44
2022/06/27 01:11:23;;;;;;;;;;;;;;;;;;2086036;28;20414;-46
2022/06/27 01:12:24;;;;;;;;;;;;;;;;;;2082135;28;20309;-45
2022/06/27 01:13:25;;;;;;;;;;;;;;;;;;2082121;28;19921;-46
2022/06/27 01:14:26;;;;;;;;;;;;;;;;;;2082118;28;19929;-45
2022/06/27 01:15:27;;;;;;;;;;;;;;;;;;2081946;28;20263;-45
2022/06/27 01:16:28;;;;;;;;;;;;;;;;;;2081875;28;20433;-46
2022/06/27 01:17:29;;;;;;;;;;;;;;;;;;2124526;23;20027;-45
2022/06/27 01:18:29;;;;;;;;;;;;;;;;;;2097948;28;20359;-46
2022/06/27 01:19:31;;;;;;;;;;;;;;;;;;2098524;28;19920;-45
2022/06/27 01:20:31;;;;;;;;;;;;;;;;;;2098788;28;19927;-45
2022/06/27 01:21:32;;;;;;;;;;;;;;;;;;2098779;28;19920;-44
2022/06/27 01:22:33;;;;;;;;;;;;;;;;;;2098592;28;20369;-44
2022/06/27 01:23:35;;;;;;;;;;;;;;;;;;2098555;28;19924;-45
2022/06/27 01:24:36;;;;;;;;;;;;;;;;;;2098684;28;19958;-44
2022/06/27 01:25:37;;;;;;;;;;;;;;;;;;2098545;28;20378;-43
2022/06/27 01:26:37;;;;;;;;;;;;;;;;;;2098425;28;20018;-44
2022/06/27 01:27:38;;;;;;;;;;;;;;;;;;2098464;28;19977;-43
2022/06/27 01:28:39;;;;;;;;;;;;;;;;;;2098656;28;20007;-45
2022/06/27 01:29:40;;;;;;;;;;;;;;;;;;2098591;28;19955;-46
2022/06/27 01:30:41;;;;;;;;;;;;;;;;;;2098599;28;20309;-46
2022/06/27 01:31:42;;;;;;;;;;;;;;;;;;2098652;28;19991;-45
2022/06/27 01:32:43;;;;;;;;;;;;;;;;;;2098457;28;20074;-44
2022/06/27 01:33:44;;;;;;;;;;;;;;;;;;2098521;28;20385;-44
2022/06/27 01:34:45;;;;;;;;;;;;;;;;;;2098479;28;19926;-43
2022/06/27 01:35:45;;;;;;;;;;;;;;;;;;2098350;28;19920;-44
2022/06/27 01:36:46;;;;;;;;;;;;;;;;;;2098398;28;19986;-43
2022/06/27 01:37:47;;;;;;;;;;;;;;;;;;2098397;28;19929;-43
2022/06/27 01:38:48;;;;;;;;;;;;;;;;;;2098334;28;19978;-44
2022/06/27 01:39:49;;;;;;;;;;;;;;;;;;2098705;28;19958;-45
2022/06/27 01:40:49;;;;;;;;;;;;;;;;;;2098496;28;19920;-46
2022/06/27 01:41:50;;;;;;;;;;;;;;;;;;2098412;28;19920;-47
2022/06/27 01:42:51;;;;;;;;;;;;;;;;;;2098503;28;19920;-45
2022/06/27 01:43:52;;;;;;;;;;;;;;;;;;2098522;28;20376;-46
2022/06/27 01:44:53;;;;;;;;;;;;;;;;;;2098271;28;19920;-46
2022/06/27 01:45:54;;;;;;;;;;;;;;;;;;2098334;28;20029;-46
2022/06/27 01:46:54;;;;;;;;;;;;;;;;;;2098385;28;19921;-46
2022/06/27 01:47:55;;;;;;;;;;;;;;;;;;2098388;28;20360;-45
2022/06/27 01:48:56;;;;;;;;;;;;;;;;;;2098403;28;20004;-45
2022/06/27 01:49:57;;;;;;;;;;;;;;;;;;2098642;28;19970;-45
2022/06/27 01:50:58;;;;;;;;;;;;;;;;;;2098346;28;20455;-47
2022/06/27 01:52:00;;;;;;;;;;;;;;;;;;2098497;28;19924;-46
2022/06/27 01:53:01;;;;;;;;;;;;;;;;;;2098490;28;19999;-46
2022/06/27 01:54:02;;;;;;;;;;;;;;;;;;2098383;28;20064;-46
2022/06/27 01:55:03;;;;;;;;;;;;;;;;;;2098645;28;20039;-43
2022/06/27 01:56:04;;;;;;;;;;;;;;;;;;2098317;28;20366;-43
2022/06/27 01:57:05;;;;;;;;;;;;;;;;;;2098442;28;19928;-44
2022/06/27 01:58:05;;;;;;;;;;;;;;;;;;2098256;28;19978;-43
2022/06/27 01:59:06;;;;;;;;;;;;;;;;;;2098598;28;19920;-43
2022/06/27 02:00:07;;;;;;;;;;;;;;;;;;2098291;28;20007;-43
2022/06/27 02:01:08;;;;;;;;;;;;;;;;;;2098232;28;19971;-46
2022/06/27 02:02:09;;;;;;;;;;;;;;;;;;2098332;28;20156;-44
2022/06/27 02:03:10;;;;;;;;;;;;;;;;;;2098181;28;19943;-43
2022/06/27 02:04:11;;;;;;;;;;;;;;;;;;2098217;28;19928;-44
2022/06/27 02:05:12;;;;;;;;;;;;;;;;;;2098264;28;20048;-44
2022/06/27 02:06:13;;;;;;;;;;;;;;;;;;2098317;28;19928;-45
2022/06/27 02:07:13;;;;;;;;;;;;;;;;;;2098346;28;20363;-44
2022/06/27 02:08:14;;;;;;;;;;;;;;;;;;2098269;28;19924;-43
2022/06/27 02:09:15;;;;;;;;;;;;;;;;;;2098158;28;20012;-43
2022/06/27 02:10:16;;;;;;;;;;;;;;;;;;2098600;28;19970;-43
2022/06/27 02:11:17;;;;;;;;;;;;;;;;;;2097716;28;19966;-43
2022/06/27 02:12:22;;;;;;;;;;;;;;;;;;2098030;28;20396;-44
2022/06/27 02:13:23;;;;;;;;;;;;;;;;;;2098287;28;20007;-45
2022/06/27 02:14:24;;;;;;;;;;;;;;;;;;2098435;28;19920;-44
2022/06/27 02:15:25;;;;;;;;;;;;;;;;;;2098120;28;19920;-43
2022/06/27 02:16:26;;;;;;;;;;;;;;;;;;2098170;28;19920;-44
2022/06/27 02:17:27;;;;;;;;;;;;;;;;;;2098500;28;19997;-43
2022/06/27 02:18:28;;;;;;;;;;;;;;;;;;2098100;28;20383;-44
2022/06/27 02:19:28;;;;;;;;;;;;;;;;;;2098529;28;19928;-43
2022/06/27 02:20:29;;;;;;;;;;;;;;;;;;2098170;28;19921;-43
2022/06/27 02:21:30;;;;;;;;;;;;;;;;;;2098078;28;19924;-44
2022/06/27 02:22:31;;;;;;;;;;;;;;;;;;2098313;28;20439;-45
2022/06/27 02:23:32;;;;;;;;;;;;;;;;;;2098174;28;19928;-45
2022/06/27 02:24:33;;;;;;;;;;;;;;;;;;2098402;28;19920;-44
2022/06/27 02:25:34;;;;;;;;;;;;;;;;;;2098365;28;20474;-46
2022/06/27 02:26:35;;;;;;;;;;;;;;;;;;2098054;28;19940;-46
2022/06/27 02:27:35;;;;;;;;;;;;;;;;;;2098226;28;20277;-44
2022/06/27 02:28:37;;;;;;;;;;;;;;;;;;2098106;28;20381;-44
2022/06/27 02:29:37;;;;;;;;;;;;;;;;;;2098061;28;19995;-43
2022/06/27 02:30:38;;;;;;;;;;;;;;;;;;2097214;28;19924;-44
2022/06/27 02:31:39;;;;;;;;;;;;;;;;;;2098409;28;19927;-45
2022/06/27 02:32:40;;;;;;;;;;;;;;;;;;2098073;28;19920;-46
2022/06/27 02:33:41;;;;;;;;;;;;;;;;;;2097983;28;20274;-45
2022/06/27 02:34:42;;;;;;;;;;;;;;;;;;2098036;28;19945;-45
2022/06/27 02:35:43;;;;;;;;;;;;;;;;;;2098016;28;19970;-45
2022/06/27 02:36:44;;;;;;;;;;;;;;;;;;2098291;28;19928;-43
2022/06/27 02:37:44;;;;;;;;;;;;;;;;;;2098479;28;20324;-43
2022/06/27 02:38:46;;;;;;;;;;;;;;;;;;2097999;28;19920;-43
2022/06/27 02:39:47;;;;;;;;;;;;;;;;;;2097988;28;20011;-43
2022/06/27 02:40:47;;;;;;;;;;;;;;;;;;2097962;28;19924;-44
2022/06/27 02:41:51;;;;;;;;;;;;;;;;;;2098058;28;19921;-43
2022/06/27 02:42:52;;;;;;;;;;;;;;;;;;2097850;28;19920;-43
2022/06/27 02:43:53;;;;;;;;;;;;;;;;;;2097270;28;19927;-44
2022/06/27 02:44:54;;;;;;;;;;;;;;;;;;2097536;28;19921;-43
2022/06/27 02:45:55;;;;;;;;;;;;;;;;;;2097144;28;20263;-43
2022/06/27 02:46:55;;;;;;;;;;;;;;;;;;2097377;28;19977;-43
2022/06/27 02:47:56;;;;;;;;;;;;;;;;;;2097882;28;19959;-44
2022/06/27 02:48:57;;;;;;;;;;;;;;;;;;2098034;28;19920;-43
2022/06/27 02:49:58;;;;;;;;;;;;;;;;;;2098161;28;20289;-46
2022/06/27 02:50:59;;;;;;;;;;;;;;;;;;2097901;28;20363;-46
2022/06/27 02:52:00;;;;;;;;;;;;;;;;;;2097993;28;20016;-46
2022/06/27 02:53:01;;;;;;;;;;;;;;;;;;2097871;28;19920;-45
2022/06/27 02:54:02;;;;;;;;;;;;;;;;;;2098000;28;19920;-45
2022/06/27 02:55:03;;;;;;;;;;;;;;;;;;2097986;28;19995;-45
2022/06/27 02:56:05;;;;;;;;;;;;;;;;;;2098076;28;19920;-46
2022/06/27 02:57:06;;;;;;;;;;;;;;;;;;2097955;28;20490;-45
2022/06/27 02:58:07;;;;;;;;;;;;;;;;;;2097942;28;19920;-45
2022/06/27 02:59:07;;;;;;;;;;;;;;;;;;2097897;28;19995;-46
2022/06/27 03:00:10;;;;;;;;;;;;;;;;;;2097884;28;19924;-44
2022/06/27 03:01:10;;;;;;;;;;;;;;;;;;2097946;28;19920;-44
2022/06/27 03:02:11;;;;;;;;;;;;;;;;;;2097845;28;19920;-45
2022/06/27 03:03:12;;;;;;;;;;;;;;;;;;2097847;28;19920;-45
2022/06/27 03:04:13;;;;;;;;;;;;;;;;;;2097923;28;20002;-45
2022/06/27 03:05:14;;;;;;;;;;;;;;;;;;2098373;28;19920;-43
2022/06/27 03:06:15;;;;;;;;;;;;;;;;;;2097858;28;20235;-43
2022/06/27 03:07:16;;;;;;;;;;;;;;;;;;2098030;28;20361;-43
2022/06/27 03:08:17;;;;;;;;;;;;;;;;;;2097681;28;19921;-43
2022/06/27 03:09:17;;;;;;;;;;;;;;;;;;2097911;28;19995;-44
2022/06/27 03:10:19;;;;;;;;;;;;;;;;;;2097699;28;19931;-43
2022/06/27 03:11:19;;;;;;;;;;;;;;;;;;2094231;28;19924;-43
2022/06/27 03:12:20;;;;;;;;;;;;;;;;;;2089576;28;19927;-43
2022/06/27 03:13:21;;;;;;;;;;;;;;;;;;2089619;28;19971;-44
2022/06/27 03:14:22;;;;;;;;;;;;;;;;;;2089585;28;19956;-43
2022/06/27 03:15:23;;;;;;;;;;;;;;;;;;2089553;28;20018;-43
2022/06/27 03:16:24;;;;;;;;;;;;;;;;;;2089630;28;19921;-43
2022/06/27 03:17:24;;;;;;;;;;;;;;;;;;2089647;28;19956;-43
2022/06/27 03:18:25;;;;;;;;;;;;;;;;;;2089587;28;20378;-43
2022/06/27 03:19:26;;;;;;;;;;;;;;;;;;2089747;28;20259;-43
2022/06/27 03:20:27;;;;;;;;;;;;;;;;;;2089656;28;19951;-44
2022/06/27 03:21:28;;;;;;;;;;;;;;;;;;2089702;28;19921;-46
2022/06/27 03:22:29;;;;;;;;;;;;;;;;;;2089454;28;19985;-45
2022/06/27 03:23:30;;;;;;;;;;;;;;;;;;2089535;28;19921;-46
2022/06/27 03:24:31;;;;;;;;;;;;;;;;;;2089855;28;20062;-43
2022/06/27 03:25:31;;;;;;;;;;;;;;;;;;2089600;28;19956;-43
2022/06/27 03:26:32;;;;;;;;;;;;;;;;;;2089558;28;20374;-43
2022/06/27 03:27:33;;;;;;;;;;;;;;;;;;2089700;28;20329;-45
2022/06/27 03:28:34;;;;;;;;;;;;;;;;;;2089587;28;20016;-45
2022/06/27 03:29:35;;;;;;;;;;;;;;;;;;2089702;28;20077;-43
2022/06/27 03:30:36;;;;;;;;;;;;;;;;;;2089443;28;19921;-43
2022/06/27 03:31:37;;;;;;;;;;;;;;;;;;2089701;28;20390;-45
2022/06/27 03:32:38;;;;;;;;;;;;;;;;;;2089450;28;20015;-45
2022/06/27 03:33:38;;;;;;;;;;;;;;;;;;2089694;28;19931;-45
2022/06/27 03:34:39;;;;;;;;;;;;;;;;;;2089413;28;20011;-44
2022/06/27 03:35:41;;;;;;;;;;;;;;;;;;2089430;28;20071;-45
2022/06/27 03:36:43;;;;;;;;;;;;;;;;;;2089436;28;19999;-44
2022/06/27 03:37:44;;;;;;;;;;;;;;;;;;2089690;28;20003;-44
2022/06/27 03:38:45;;;;;;;;;;;;;;;;;;2089426;28;19928;-44
2022/06/27 03:39:46;;;;;;;;;;;;;;;;;;2089447;28;19925;-44
2022/06/27 03:40:47;;;;;;;;;;;;;;;;;;2089683;28;20155;-42
2022/06/27 03:41:48;;;;;;;;;;;;;;;;;;2089767;28;20425;-44
2022/06/27 03:42:49;;;;;;;;;;;;;;;;;;2091046;28;19975;-42
2022/06/27 03:43:50;;;;;;;;;;;;;;;;;;2090776;28;20418;-43
2022/06/27 03:44:50;;;;;;;;;;;;;;;;;;2091041;28;19927;-43
2022/06/27 03:45:52;;;;;;;;;;;;;;;;;;2090984;28;19920;-43
2022/06/27 03:46:52;;;;;;;;;;;;;;;;;;2090884;28;19927;-43
2022/06/27 03:47:54;;;;;;;;;;;;;;;;;;2090954;28;20282;-45
2022/06/27 03:50:22;;;;;;;;;;;;;;;;;;2065315;28;19941;-42
2022/06/27 03:51:25;;;;;;;;;;;;;;;;;;2081634;28;19922;-44
2022/06/27 03:52:26;;;;;;;;;;;;;;;;;;2090714;28;19921;-43
2022/06/27 03:53:27;;;;;;;;;;;;;;;;;;2091051;28;19927;-44
2022/06/27 03:54:28;;;;;;;;;;;;;;;;;;2090878;28;20063;-44
2022/06/27 03:55:29;;;;;;;;;;;;;;;;;;2090988;28;19947;-44
2022/06/27 03:56:29;;;;;;;;;;;;;;;;;;2090758;28;20014;-46
2022/06/27 03:57:30;;;;;;;;;;;;;;;;;;2090820;28;19921;-45
2022/06/27 03:58:31;;;;;;;;;;;;;;;;;;2090826;28;19924;-45
2022/06/27 03:59:32;;;;;;;;;;;;;;;;;;2090765;28;20439;-45
2022/06/27 04:00:33;;;;;;;;;;;;;;;;;;2090968;28;19964;-45
2022/06/27 04:01:34;;;;;;;;;;;;;;;;;;2090795;28;19905;-45
2022/06/27 04:02:35;;;;;;;;;;;;;;;;;;2091157;28;20297;-43
2022/06/27 04:03:36;;;;;;;;;;;;;;;;;;2090856;28;19963;-43
2022/06/27 04:04:37;;;;;;;;;;;;;;;;;;2097787;28;19928;-43
2022/06/27 04:05:38;;;;;;;;;;;;;;;;;;2099017;28;19967;-43
2022/06/27 04:06:39;;;;;;;;;;;;;;;;;;2098916;28;20094;-44
2022/06/27 04:07:44;;;;;;;;;;;;;;;;;;2099051;28;19920;-43
2022/06/27 04:08:45;;;;;;;;;;;;;;;;;;2098924;28;19921;-43
2022/06/27 04:09:46;;;;;;;;;;;;;;;;;;2099232;28;19921;-45
2022/06/27 04:10:47;;;;;;;;;;;;;;;;;;2099138;28;20461;-42
2022/06/27 04:11:48;;;;;;;;;;;;;;;;;;2091222;28;19985;-43
2022/06/27 04:12:48;;;;;;;;;;;;;;;;;;2090768;28;19921;-44
2022/06/27 04:13:49;;;;;;;;;;;;;;;;;;2090966;28;20015;-43
2022/06/27 04:14:50;;;;;;;;;;;;;;;;;;2090909;28;19921;-44
2022/06/27 04:15:51;;;;;;;;;;;;;;;;;;2090770;28;19952;-43
2022/06/27 04:16:52;;;;;;;;;;;;;;;;;;2090694;28;19960;-43
2022/06/27 04:17:53;;;;;;;;;;;;;;;;;;2090614;28;19947;-43
2022/06/27 04:18:54;;;;;;;;;;;;;;;;;;2091007;28;19920;-44
2022/06/27 04:19:55;;;;;;;;;;;;;;;;;;2090590;28;20275;-43
2022/06/27 04:20:56;;;;;;;;;;;;;;;;;;2090879;28;19960;-43
2022/06/27 04:21:57;;;;;;;;;;;;;;;;;;2090666;28;19926;-43
2022/06/27 04:22:57;;;;;;;;;;;;;;;;;;2090695;28;19928;-43
2022/06/27 04:23:58;;;;;;;;;;;;;;;;;;2090648;28;20416;-43
2022/06/27 04:24:59;;;;;;;;;;;;;;;;;;2090774;28;19968;-43
2022/06/27 04:26:00;;;;;;;;;;;;;;;;;;2090563;28;20058;-43
2022/06/27 04:27:01;;;;;;;;;;;;;;;;;;2090959;28;19982;-43
2022/06/27 04:28:02;;;;;;;;;;;;;;;;;;2090662;28;20013;-43
2022/06/27 04:29:03;;;;;;;;;;;;;;;;;;2090574;28;19940;-42
2022/06/27 04:30:04;;;;;;;;;;;;;;;;;;2090615;28;19966;-43
2022/06/27 04:31:05;;;;;;;;;;;;;;;;;;2090537;28;19928;-43
2022/06/27 04:32:07;;;;;;;;;;;;;;;;;;2090632;28;20007;-43
2022/06/27 04:33:08;;;;;;;;;;;;;;;;;;2090650;28;19921;-45
2022/06/27 04:34:12;;;;;;;;;;;;;;;;;;2090797;28;19925;-45
2022/06/27 04:35:13;;;;;;;;;;;;;;;;;;2090447;28;20046;-44
2022/06/27 04:36:14;;;;;;;;;;;;;;;;;;2090626;28;20442;-45
2022/06/27 04:37:15;;;;;;;;;;;;;;;;;;2090512;28;20374;-45
2022/06/27 04:38:18;;;;;;;;;;;;;;;;;;2090419;28;19974;-45
2022/06/27 04:39:20;;;;;;;;;;;;;;;;;;2090880;28;19960;-45
2022/06/27 04:40:21;;;;;;;;;;;;;;;;;;2090540;28;19927;-46
2022/06/27 04:41:22;;;;;;;;;;;;;;;;;;2090471;28;20007;-44
2022/06/27 04:42:23;;;;;;;;;;;;;;;;;;2090653;28;19920;-44
2022/06/27 04:43:26;;;;;;;;;;;;;;;;;;2090468;28;20011;-44
2022/06/27 04:44:27;;;;;;;;;;;;;;;;;;2090407;28;20350;-44
2022/06/27 04:45:28;;;;;;;;;;;;;;;;;;2090508;28;20358;-42
2022/06/27 04:46:29;;;;;;;;;;;;;;;;;;2090526;28;20011;-43
2022/06/27 04:47:30;;;;;;;;;;;;;;;;;;2090294;28;20302;-43
2022/06/27 04:48:32;;;;;;;;;;;;;;;;;;2090466;28;20016;-43
2022/06/27 04:49:33;;;;;;;;;;;;;;;;;;2090588;28;20012;-42
2022/06/27 04:50:36;;;;;;;;;;;;;;;;;;2090369;28;19921;-42
2022/06/27 04:51:38;;;;;;;;;;;;;;;;;;2090555;28;19960;-45
2022/06/27 04:52:39;;;;;;;;;;;;;;;;;;2090542;28;20023;-44
2022/06/27 04:53:40;;;;;;;;;;;;;;;;;;2089623;28;20070;-42
2022/06/27 04:54:41;;;;;;;;;;;;;;;;;;2090765;28;19927;-42
2022/06/27 04:55:42;;;;;;;;;;;;;;;;;;2090482;28;20297;-47
2022/06/27 04:56:44;;;;;;;;;;;;;;;;;;2090496;28;19920;-44
2022/06/27 04:57:45;;;;;;;;;;;;;;;;;;2090504;28;19955;-45
2022/06/27 04:58:46;;;;;;;;;;;;;;;;;;2090763;28;20020;-45
2022/06/27 04:59:48;;;;;;;;;;;;;;;;;;2090472;28;20013;-45
2022/06/27 05:00:49;;;;;;;;;;;;;;;;;;2097194;28;19981;-46
2022/06/27 05:01:50;;;;;;;;;;;;;;;;;;2098857;28;19969;-48
2022/06/27 05:02:52;;;;;;;;;;;;;;;;;;2098642;28;19928;-45
2022/06/27 05:03:53;;;;;;;;;;;;;;;;;;2098816;28;19920;-47
2022/06/27 05:04:54;;;;;;;;;;;;;;;;;;2099039;28;20379;-45
2022/06/27 05:05:55;;;;;;;;;;;;;;;;;;2098707;28;19921;-45
2022/06/27 05:06:56;;;;;;;;;;;;;;;;;;2099031;28;19920;-46
2022/06/27 05:07:57;;;;;;;;;;;;;;;;;;2098688;28;19920;-46
2022/06/27 05:08:58;;;;;;;;;;;;;;;;;;2098615;28;19948;-46
2022/06/27 05:09:58;;;;;;;;;;;;;;;;;;2098742;28;19971;-47
2022/06/27 05:10:59;;;;;;;;;;;;;;;;;;2097636;28;20327;-46
2022/06/27 05:12:00;;;;;;;;;;;;;;;;;;2090381;28;19960;-47
2022/06/27 05:13:02;;;;;;;;;;;;;;;;;;2090628;28;20366;-48
2022/06/27 05:14:03;;;;;;;;;;;;;;;;;;2090295;28;20011;-46
2022/06/27 05:15:04;;;;;;;;;;;;;;;;;;2090228;28;19920;-47
2022/06/27 05:16:05;;;;;;;;;;;;;;;;;;2090462;28;19960;-47
2022/06/27 05:17:10;;;;;;;;;;;;;;;;;;2090628;28;19958;-46
2022/06/27 05:18:14;;;;;;;;;;;;;;;;;;2090293;28;19920;-47
2022/06/27 05:19:15;;;;;;;;;;;;;;;;;;2090394;28;20016;-47
2022/06/27 05:20:17;;;;;;;;;;;;;;;;;;2090305;28;20326;-47
2022/06/27 05:21:18;;;;;;;;;;;;;;;;;;2090516;28;20260;-46
2022/06/27 05:22:19;;;;;;;;;;;;;;;;;;2090327;28;20337;-46
2022/06/27 05:23:20;;;;;;;;;;;;;;;;;;2090242;28;20003;-47
2022/06/27 05:24:21;;;;;;;;;;;;;;;;;;2090517;28;19964;-46
2022/06/27 05:25:22;;;;;;;;;;;;;;;;;;2090198;28;20259;-45
2022/06/27 05:26:23;;;;;;;;;;;;;;;;;;2090402;28;20011;-45
2022/06/27 05:27:24;;;;;;;;;;;;;;;;;;2090183;28;20012;-47
2022/06/27 05:28:25;;;;;;;;;;;;;;;;;;2090195;28;20378;-47
2022/06/27 05:29:26;;;;;;;;;;;;;;;;;;2090144;28;19920;-47
2022/06/27 05:30:28;;;;;;;;;;;;;;;;;;2090487;28;20493;-44
2022/06/27 05:31:29;;;;;;;;;;;;;;;;;;2090110;28;20285;-44
2022/06/27 05:32:30;;;;;;;;;;;;;;;;;;2090302;28;20416;-45
2022/06/27 05:33:31;;;;;;;;;;;;;;;;;;2090170;28;19921;-44
2022/06/27 05:34:31;;;;;;;;;;;;;;;;;;2090322;28;19959;-45
2022/06/27 05:35:32;;;;;;;;;;;;;;;;;;2090340;28;19921;-44
2022/06/27 05:36:33;;;;;;;;;;;;;;;;;;2090240;28;20028;-47
2022/06/27 05:37:34;;;;;;;;;;;;;;;;;;2090483;28;19943;-47
2022/06/27 05:38:36;;;;;;;;;;;;;;;;;;2090155;28;19926;-46
2022/06/27 05:39:37;;;;;;;;;;;;;;;;;;2090084;28;19932;-46
2022/06/27 05:40:38;;;;;;;;;;;;;;;;;;2090117;28;19920;-44
2022/06/27 05:41:39;;;;;;;;;;;;;;;;;;2090288;28;19948;-46
2022/06/27 05:42:40;;;;;;;;;;;;;;;;;;2090096;28;20015;-49
2022/06/27 05:43:41;;;;;;;;;;;;;;;;;;2090293;28;19920;-46
2022/06/27 05:44:42;;;;;;;;;;;;;;;;;;2090207;28;20366;-46
2022/06/27 05:45:43;;;;;;;;;;;;;;;;;;2089976;28;19921;-47
2022/06/27 05:46:44;;;;;;;;;;;;;;;;;;2090019;28;19921;-46
2022/06/27 05:47:45;;;;;;;;;;;;;;;;;;2090167;28;19974;-46
2022/06/27 05:48:47;;;;;;;;;;;;;;;;;;2090119;28;19928;-48
2022/06/27 05:49:49;;;;;;;;;;;;;;;;;;2090027;28;19921;-47
2022/06/27 05:50:49;;;;;;;;;;;;;;;;;;2090120;28;20028;-46
2022/06/27 05:51:51;;;;;;;;;;;;;;;;;;2089977;28;20016;-48
2022/06/27 05:52:53;;;;;;;;;;;;;;;;;;2090031;28;20412;-45
2022/06/27 05:53:56;;;;;;;;;;;;;;;;;;2090124;28;19979;-47
2022/06/27 05:54:59;;;;;;;;;;;;;;;;;;2089988;28;19921;-46
2022/06/27 05:56:02;;;;;;;;;;;;;;;;;;2089923;28;20365;-47
2022/06/27 05:57:03;;;;;;;;;;;;;;;;;;2096452;28;19924;-45
2022/06/27 05:58:05;;;;;;;;;;;;;;;;;;2098258;28;20430;-46
2022/06/27 05:59:06;;;;;;;;;;;;;;;;;;2098507;28;19998;-44
2022/06/27 06:00:08;;;;;;;;;;;;;;;;;;2098603;28;19921;-46
2022/06/27 06:01:09;;;;;;;;;;;;;;;;;;2098175;28;20389;-46
2022/06/27 06:02:10;;;;;;;;;;;;;;;;;;2098617;28;19985;-51
2022/06/27 06:03:11;;;;;;;;;;;;;;;;;;2098324;28;20375;-45
2022/06/27 06:04:16;;;;;;;;;;;;;;;;;;2098503;28;20285;-49
2022/06/27 06:05:18;;;;;;;;;;;;;;;;;;2098137;28;19920;-48
2022/06/27 06:06:19;;;;;;;;;;;;;;;;;;2098570;28;20240;-43
2022/06/27 06:07:22;;;;;;;;;;;;;;;;;;2098588;28;19959;-46
2022/06/27 06:08:25;;;;;;;;;;;;;;;;;;2098279;28;20003;-45
2022/06/27 06:09:26;;;;;;;;;;;;;;;;;;2098584;28;20062;-45
2022/06/27 06:10:27;;;;;;;;;;;;;;;;;;2098548;28;19928;-45
2022/06/27 06:11:28;;;;;;;;;;;;;;;;;;2093278;28;19921;-47
2022/06/27 06:12:30;;;;;;;;;;;;;;;;;;2090338;28;19926;-45
2022/06/27 06:13:31;;;;;;;;;;;;;;;;;;2090182;28;19927;-46
2022/06/27 06:14:33;;;;;;;;;;;;;;;;;;2089937;28;19944;-47
2022/06/27 06:15:36;;;;;;;;;;;;;;;;;;2090308;28;19921;-47
2022/06/27 06:16:37;;;;;;;;;;;;;;;;;;2090005;28;19927;-45
2022/06/27 06:17:40;;;;;;;;;;;;;;;;;;2089975;28;19963;-48
2022/06/27 06:18:41;;;;;;;;;;;;;;;;;;2089963;28;19927;-46
2022/06/27 06:19:42;;;;;;;;;;;;;;;;;;2089746;28;19927;-46
2022/06/27 06:20:43;;;;;;;;;;;;;;;;;;2094941;28;19920;-46
2022/06/27 06:21:45;;;;;;;;;;;;;;;;;;2098051;28;20073;-48
2022/06/27 06:22:46;;;;;;;;;;;;;;;;;;2098262;28;20011;-46
2022/06/27 06:23:47;;;;;;;;;;;;;;;;;;2098254;28;20270;-44
2022/06/27 06:24:49;;;;;;;;;;;;;;;;;;2098236;28;20403;-44
2022/06/27 06:25:50;;;;;;;;;;;;;;;;;;2098347;28;20015;-45
2022/06/27 06:26:52;;;;;;;;;;;;;;;;;;2098022;28;19943;-44
2022/06/27 06:27:56;;;;;;;;;;;;;;;;;;2098105;28;20015;-47
2022/06/27 06:28:59;;;;;;;;;;;;;;;;;;2098325;28;20007;-47
2022/06/27 06:30:02;;;;;;;;;;;;;;;;;;2098064;28;19924;-47
2022/06/27 06:31:03;;;;;;;;;;;;;;;;;;2097767;28;20000;-44
2022/06/27 06:32:05;;;;;;;;;;;;;;;;;;2098131;28;19920;-45
2022/06/27 06:33:07;;;;;;;;;;;;;;;;;;2098129;28;19921;-44
2022/06/27 06:34:09;;;;;;;;;;;;;;;;;;2098147;28;20004;-44
2022/06/27 06:35:10;;;;;;;;;;;;;;;;;;2097965;28;20003;-44
2022/06/27 06:36:11;;;;;;;;;;;;;;;;;;2098162;28;20296;-47
2022/06/27 06:37:12;;;;;;;;;;;;;;;;;;2098091;28;19966;-44
2022/06/27 06:38:15;;;;;;;;;;;;;;;;;;2098266;28;20378;-44
2022/06/27 06:39:17;;;;;;;;;;;;;;;;;;2098142;28;19920;-47
2022/06/27 06:40:18;;;;;;;;;;;;;;;;;;2097569;28;19920;-44
2022/06/27 06:41:19;;;;;;;;;;;;;;;;;;2098217;28;20369;-46
2022/06/27 06:42:20;;;;;;;;;;;;;;;;;;2098141;28;20012;-45
2022/06/27 06:43:23;;;;;;;;;;;;;;;;;;2097906;28;19920;-44
2022/06/27 06:44:24;;;;;;;;;;;;;;;;;;2098205;28;20378;-46
2022/06/27 06:45:25;;;;;;;;;;;;;;;;;;2098184;28;19920;-45
2022/06/27 06:46:26;;;;;;;;;;;;;;;;;;2097878;28;19966;-44
2022/06/27 06:47:28;;;;;;;;;;;;;;;;;;2098565;28;19970;-46
2022/06/27 06:48:28;;;;;;;;;;;;;;;;;;2098283;28;19924;-44
2022/06/27 06:49:30;;;;;;;;;;;;;;;;;;2098000;28;19971;-44
2022/06/27 06:50:31;;;;;;;;;;;;;;;;;;2098106;28;20011;-44
2022/06/27 06:51:31;;;;;;;;;;;;;;;;;;2097876;28;19927;-45
2022/06/27 06:52:34;;;;;;;;;;;;;;;;;;2097676;28;19927;-44
2022/06/27 06:53:35;;;;;;;;;;;;;;;;;;2097848;28;19986;-45
2022/06/27 06:54:37;;;;;;;;;;;;;;;;;;2098200;28;20445;-44
2022/06/27 06:55:38;;;;;;;;;;;;;;;;;;2097895;28;20015;-44
2022/06/27 06:56:39;;;;;;;;;;;;;;;;;;2098221;28;19921;-45
2022/06/27 06:57:40;;;;;;;;;;;;;;;;;;2097914;28;20010;-47
2022/06/27 06:58:42;;;;;;;;;;;;;;;;;;2098057;28;20361;-47
2022/06/27 06:59:43;;;;;;;;;;;;;;;;;;2098106;28;19928;-48